Archival Weather

Republic

Farmingdale, New York (KFRG)

Report from: Monday, February 19, 2024 2:53 PM EST
Current time: Friday, June 14, 2024 8:25 AM EDT

Current weather – Weather history – Daily summaries
Weather forecast

Temperature3.9°C (39.0°F)
Wind chill-0.1°C (31.8°F)
Dew point-12.8°C (9.0°F)
Winds 10 kts (5.1 m/s, 11.5 mph) North-Northwest (330°)
Visibility10 mi. (16.1 km)
Clouds Sky clear
Altimeter30.15 in.Hg (1021 mB)
Relative humidity28 %
Density altitude-1,565 ft. (-477 m)
Sea-level pressure102.1 kPa (1021 mB, 30.15 in.Hg)
Remarks Automated weather observing station without precipitation discriminator
Flight conditions Visual Meteorological Conditions
Raw dataKFRG 191953Z 33010KT 10SM CLR 04/M13 A3015 RMK AO1 SLP210 T00391128
An error has occurred. This application may no longer respond until reloaded. Reload 🗙